sensor_id;sensor_type;location;lat;lon;timestamp;P1;durP1;ratioP1;P2;durP2;ratioP2
55931;SDS011;41837;55.700;37.984;2022-10-16T00:01:38;57.28;;;37.75;;
55931;SDS011;41837;55.700;37.984;2022-10-16T00:04:04;62.33;;;39.08;;
55931;SDS011;41837;55.700;37.984;2022-10-16T00:06:30;58.42;;;39.05;;
55931;SDS011;41837;55.700;37.984;2022-10-16T00:08:57;62.42;;;41.92;;
55931;SDS011;41837;55.700;37.984;2022-10-16T00:11:24;82.80;;;45.67;;
55931;SDS011;41837;55.700;37.984;2022-10-16T00:13:51;83.57;;;51.33;;
55931;SDS011;41837;55.700;37.984;2022-10-16T00:16:17;78.78;;;53.03;;
55931;SDS011;41837;55.700;37.984;2022-10-16T00:18:44;82.30;;;50.55;;
55931;SDS011;41837;55.700;37.984;2022-10-16T00:21:12;82.72;;;51.72;;
55931;SDS011;41837;55.700;37.984;2022-10-16T00:23:58;67.45;;;49.70;;
55931;SDS011;41837;55.700;37.984;2022-10-16T00:26:25;68.05;;;49.03;;
55931;SDS011;41837;55.700;37.984;2022-10-16T00:28:52;81.22;;;51.30;;
55931;SDS011;41837;55.700;37.984;2022-10-16T00:31:18;76.43;;;50.63;;
55931;SDS011;41837;55.700;37.984;2022-10-16T00:33:44;67.93;;;45.45;;
55931;SDS011;41837;55.700;37.984;2022-10-16T00:36:12;63.03;;;42.17;;
55931;SDS011;41837;55.700;37.984;2022-10-16T00:38:38;61.95;;;41.70;;
55931;SDS011;41837;55.700;37.984;2022-10-16T00:41:05;56.58;;;40.38;;
55931;SDS011;41837;55.700;37.984;2022-10-16T00:43:52;55.10;;;34.42;;
55931;SDS011;41837;55.700;37.984;2022-10-16T00:48:59;38.97;;;27.15;;
55931;SDS011;41837;55.700;37.984;2022-10-16T00:51:28;47.13;;;26.25;;
55931;SDS011;41837;55.700;37.984;2022-10-16T00:53:56;46.78;;;27.15;;
55931;SDS011;41837;55.700;37.984;2022-10-16T00:56:23;46.22;;;29.63;;
55931;SDS011;41837;55.700;37.984;2022-10-16T00:58:49;43.53;;;30.00;;
55931;SDS011;41837;55.700;37.984;2022-10-16T01:01:15;50.80;;;31.98;;
55931;SDS011;41837;55.700;37.984;2022-10-16T01:03:41;49.75;;;32.25;;
55931;SDS011;41837;55.700;37.984;2022-10-16T01:16:49;52.08;;;33.92;;
55931;SDS011;41837;55.700;37.984;2022-10-16T01:21:50;42.83;;;28.42;;
55931;SDS011;41837;55.700;37.984;2022-10-16T01:27:12;47.05;;;33.50;;
55931;SDS011;41837;55.700;37.984;2022-10-16T01:32:13;51.80;;;35.10;;
55931;SDS011;41837;55.700;37.984;2022-10-16T01:34:58;50.95;;;34.50;;
55931;SDS011;41837;55.700;37.984;2022-10-16T01:37:36;53.08;;;34.67;;
55931;SDS011;41837;55.700;37.984;2022-10-16T01:40:05;44.47;;;32.25;;
55931;SDS011;41837;55.700;37.984;2022-10-16T01:42:34;44.78;;;31.65;;
55931;SDS011;41837;55.700;37.984;2022-10-16T01:45:02;45.15;;;29.60;;
55931;SDS011;41837;55.700;37.984;2022-10-16T01:47:30;41.53;;;26.42;;
55931;SDS011;41837;55.700;37.984;2022-10-16T01:49:57;42.42;;;26.58;;
55931;SDS011;41837;55.700;37.984;2022-10-16T01:52:24;35.72;;;25.10;;
55931;SDS011;41837;55.700;37.984;2022-10-16T01:54:52;39.83;;;25.02;;
55931;SDS011;41837;55.700;37.984;2022-10-16T01:57:19;42.33;;;28.80;;
55931;SDS011;41837;55.700;37.984;2022-10-16T01:59:50;43.50;;;30.23;;
55931;SDS011;41837;55.700;37.984;2022-10-16T02:02:17;41.97;;;27.80;;
55931;SDS011;41837;55.700;37.984;2022-10-16T02:04:46;32.33;;;22.08;;
55931;SDS011;41837;55.700;37.984;2022-10-16T02:07:12;33.45;;;18.52;;
55931;SDS011;41837;55.700;37.984;2022-10-16T02:09:39;30.50;;;17.80;;
55931;SDS011;41837;55.700;37.984;2022-10-16T02:12:10;33.33;;;19.40;;
55931;SDS011;41837;55.700;37.984;2022-10-16T02:14:37;31.92;;;16.92;;
55931;SDS011;41837;55.700;37.984;2022-10-16T02:17:11;30.83;;;16.27;;
55931;SDS011;41837;55.700;37.984;2022-10-16T02:19:37;30.08;;;17.33;;
55931;SDS011;41837;55.700;37.984;2022-10-16T02:22:03;28.13;;;15.20;;
55931;SDS011;41837;55.700;37.984;2022-10-16T02:27:12;26.48;;;12.95;;
55931;SDS011;41837;55.700;37.984;2022-10-16T02:29:45;28.15;;;13.48;;
55931;SDS011;41837;55.700;37.984;2022-10-16T02:32:14;26.75;;;12.77;;
55931;SDS011;41837;55.700;37.984;2022-10-16T02:34:41;28.10;;;13.85;;
55931;SDS011;41837;55.700;37.984;2022-10-16T02:37:07;26.55;;;14.20;;
55931;SDS011;41837;55.700;37.984;2022-10-16T02:39:34;29.55;;;12.48;;
55931;SDS011;41837;55.700;37.984;2022-10-16T02:42:00;24.45;;;11.65;;
55931;SDS011;41837;55.700;37.984;2022-10-16T02:44:26;24.13;;;11.90;;
55931;SDS011;41837;55.700;37.984;2022-10-16T02:46:52;21.63;;;11.80;;
55931;SDS011;41837;55.700;37.984;2022-10-16T02:49:19;26.73;;;12.15;;
55931;SDS011;41837;55.700;37.984;2022-10-16T02:51:45;21.48;;;12.40;;
55931;SDS011;41837;55.700;37.984;2022-10-16T02:54:11;26.25;;;13.32;;
55931;SDS011;41837;55.700;37.984;2022-10-16T02:56:37;28.10;;;12.32;;
55931;SDS011;41837;55.700;37.984;2022-10-16T02:59:02;22.73;;;11.88;;
55931;SDS011;41837;55.700;37.984;2022-10-16T03:01:29;31.17;;;13.40;;
55931;SDS011;41837;55.700;37.984;2022-10-16T03:03:55;24.48;;;12.48;;
55931;SDS011;41837;55.700;37.984;2022-10-16T03:06:21;28.60;;;13.00;;
55931;SDS011;41837;55.700;37.984;2022-10-16T03:08:47;25.92;;;12.95;;
55931;SDS011;41837;55.700;37.984;2022-10-16T03:11:13;27.77;;;13.40;;
55931;SDS011;41837;55.700;37.984;2022-10-16T03:13:39;24.27;;;13.65;;
55931;SDS011;41837;55.700;37.984;2022-10-16T03:16:05;31.70;;;14.30;;
55931;SDS011;41837;55.700;37.984;2022-10-16T03:18:31;24.65;;;13.55;;
55931;SDS011;41837;55.700;37.984;2022-10-16T03:20:57;23.20;;;13.55;;
55931;SDS011;41837;55.700;37.984;2022-10-16T03:23:23;25.00;;;13.40;;
55931;SDS011;41837;55.700;37.984;2022-10-16T03:25:49;24.77;;;14.10;;
55931;SDS011;41837;55.700;37.984;2022-10-16T03:28:15;28.02;;;13.57;;
55931;SDS011;41837;55.700;37.984;2022-10-16T03:30:42;31.67;;;15.32;;
55931;SDS011;41837;55.700;37.984;2022-10-16T03:33:08;30.85;;;15.27;;
55931;SDS011;41837;55.700;37.984;2022-10-16T03:35:34;32.08;;;15.07;;
55931;SDS011;41837;55.700;37.984;2022-10-16T03:38:00;26.23;;;13.13;;
55931;SDS011;41837;55.700;37.984;2022-10-16T03:40:26;27.15;;;13.75;;
55931;SDS011;41837;55.700;37.984;2022-10-16T03:42:52;30.27;;;13.07;;
55931;SDS011;41837;55.700;37.984;2022-10-16T03:45:20;32.35;;;13.32;;
55931;SDS011;41837;55.700;37.984;2022-10-16T03:47:46;29.38;;;12.98;;
55931;SDS011;41837;55.700;37.984;2022-10-16T03:50:13;27.92;;;12.48;;
55931;SDS011;41837;55.700;37.984;2022-10-16T03:52:39;31.20;;;13.55;;
55931;SDS011;41837;55.700;37.984;2022-10-16T03:55:06;30.05;;;13.85;;
55931;SDS011;41837;55.700;37.984;2022-10-16T03:57:31;30.63;;;13.80;;
55931;SDS011;41837;55.700;37.984;2022-10-16T03:59:57;27.92;;;13.73;;
55931;SDS011;41837;55.700;37.984;2022-10-16T04:02:23;28.52;;;13.35;;
55931;SDS011;41837;55.700;37.984;2022-10-16T04:04:49;28.08;;;13.77;;
55931;SDS011;41837;55.700;37.984;2022-10-16T04:07:15;27.02;;;13.68;;
55931;SDS011;41837;55.700;37.984;2022-10-16T04:09:41;30.73;;;14.00;;
55931;SDS011;41837;55.700;37.984;2022-10-16T04:12:07;27.70;;;13.43;;
55931;SDS011;41837;55.700;37.984;2022-10-16T04:14:33;24.80;;;13.20;;
55931;SDS011;41837;55.700;37.984;2022-10-16T04:16:59;35.03;;;14.00;;
55931;SDS011;41837;55.700;37.984;2022-10-16T04:19:25;27.55;;;13.02;;
55931;SDS011;41837;55.700;37.984;2022-10-16T04:21:51;24.95;;;12.55;;
55931;SDS011;41837;55.700;37.984;2022-10-16T04:24:18;27.10;;;13.23;;
55931;SDS011;41837;55.700;37.984;2022-10-16T04:26:44;27.70;;;12.35;;
55931;SDS011;41837;55.700;37.984;2022-10-16T04:29:10;32.40;;;12.20;;
55931;SDS011;41837;55.700;37.984;2022-10-16T04:31:36;25.73;;;11.73;;
55931;SDS011;41837;55.700;37.984;2022-10-16T04:34:03;29.40;;;11.18;;
55931;SDS011;41837;55.700;37.984;2022-10-16T04:36:28;42.72;;;9.50;;
55931;SDS011;41837;55.700;37.984;2022-10-16T04:38:54;19.70;;;8.82;;
55931;SDS011;41837;55.700;37.984;2022-10-16T04:41:20;25.55;;;8.90;;
55931;SDS011;41837;55.700;37.984;2022-10-16T04:43:47;25.58;;;8.43;;
55931;SDS011;41837;55.700;37.984;2022-10-16T04:46:13;28.98;;;8.63;;
55931;SDS011;41837;55.700;37.984;2022-10-16T04:48:39;19.38;;;8.75;;
55931;SDS011;41837;55.700;37.984;2022-10-16T04:51:05;21.85;;;8.05;;
55931;SDS011;41837;55.700;37.984;2022-10-16T04:53:31;21.55;;;9.43;;
55931;SDS011;41837;55.700;37.984;2022-10-16T04:55:58;15.73;;;7.97;;
55931;SDS011;41837;55.700;37.984;2022-10-16T04:58:25;16.27;;;8.20;;
55931;SDS011;41837;55.700;37.984;2022-10-16T05:00:50;18.05;;;7.90;;
55931;SDS011;41837;55.700;37.984;2022-10-16T05:03:17;20.80;;;7.90;;
55931;SDS011;41837;55.700;37.984;2022-10-16T05:05:44;24.55;;;8.55;;
55931;SDS011;41837;55.700;37.984;2022-10-16T05:08:14;16.63;;;8.02;;
55931;SDS011;41837;55.700;37.984;2022-10-16T05:10:40;16.02;;;9.48;;
55931;SDS011;41837;55.700;37.984;2022-10-16T05:13:07;18.70;;;10.20;;
55931;SDS011;41837;55.700;37.984;2022-10-16T05:15:33;20.05;;;11.02;;
55931;SDS011;41837;55.700;37.984;2022-10-16T05:17:59;20.73;;;11.73;;
55931;SDS011;41837;55.700;37.984;2022-10-16T05:20:25;25.17;;;12.02;;
55931;SDS011;41837;55.700;37.984;2022-10-16T05:22:51;28.67;;;12.48;;
55931;SDS011;41837;55.700;37.984;2022-10-16T05:25:17;21.40;;;12.20;;
55931;SDS011;41837;55.700;37.984;2022-10-16T05:27:43;18.65;;;12.00;;
55931;SDS011;41837;55.700;37.984;2022-10-16T05:30:12;28.35;;;14.73;;
55931;SDS011;41837;55.700;37.984;2022-10-16T05:32:38;37.33;;;16.42;;
55931;SDS011;41837;55.700;37.984;2022-10-16T05:35:04;31.73;;;16.58;;
55931;SDS011;41837;55.700;37.984;2022-10-16T05:37:31;40.72;;;20.52;;
55931;SDS011;41837;55.700;37.984;2022-10-16T05:39:57;35.97;;;15.38;;
55931;SDS011;41837;55.700;37.984;2022-10-16T05:42:23;34.88;;;17.95;;
55931;SDS011;41837;55.700;37.984;2022-10-16T05:44:49;30.45;;;16.38;;
55931;SDS011;41837;55.700;37.984;2022-10-16T05:47:16;29.02;;;15.02;;
55931;SDS011;41837;55.700;37.984;2022-10-16T05:49:42;24.75;;;14.13;;
55931;SDS011;41837;55.700;37.984;2022-10-16T05:52:08;21.33;;;11.50;;
55931;SDS011;41837;55.700;37.984;2022-10-16T05:54:34;19.95;;;11.18;;
55931;SDS011;41837;55.700;37.984;2022-10-16T05:57:00;21.77;;;10.55;;
55931;SDS011;41837;55.700;37.984;2022-10-16T05:59:25;20.58;;;9.20;;
55931;SDS011;41837;55.700;37.984;2022-10-16T06:01:52;18.98;;;9.90;;
55931;SDS011;41837;55.700;37.984;2022-10-16T06:04:18;19.45;;;10.57;;
55931;SDS011;41837;55.700;37.984;2022-10-16T06:06:44;18.80;;;8.77;;
55931;SDS011;41837;55.700;37.984;2022-10-16T06:09:10;21.80;;;10.07;;
55931;SDS011;41837;55.700;37.984;2022-10-16T06:11:36;17.38;;;9.23;;
55931;SDS011;41837;55.700;37.984;2022-10-16T06:14:02;21.20;;;9.77;;
55931;SDS011;41837;55.700;37.984;2022-10-16T06:16:35;22.13;;;8.73;;
55931;SDS011;41837;55.700;37.984;2022-10-16T06:19:01;20.67;;;8.38;;
55931;SDS011;41837;55.700;37.984;2022-10-16T06:21:30;14.60;;;7.32;;
55931;SDS011;41837;55.700;37.984;2022-10-16T06:23:56;16.10;;;7.35;;
55931;SDS011;41837;55.700;37.984;2022-10-16T06:26:23;19.38;;;7.25;;
55931;SDS011;41837;55.700;37.984;2022-10-16T06:28:49;17.98;;;6.53;;
55931;SDS011;41837;55.700;37.984;2022-10-16T06:31:16;11.82;;;6.80;;
55931;SDS011;41837;55.700;37.984;2022-10-16T06:33:45;14.23;;;6.70;;
55931;SDS011;41837;55.700;37.984;2022-10-16T06:36:17;17.58;;;6.70;;
55931;SDS011;41837;55.700;37.984;2022-10-16T06:38:42;13.35;;;6.97;;
55931;SDS011;41837;55.700;37.984;2022-10-16T06:41:12;12.70;;;6.57;;
55931;SDS011;41837;55.700;37.984;2022-10-16T06:43:38;15.35;;;6.63;;
55931;SDS011;41837;55.700;37.984;2022-10-16T06:46:07;15.30;;;6.05;;
55931;SDS011;41837;55.700;37.984;2022-10-16T06:48:36;15.80;;;6.20;;
55931;SDS011;41837;55.700;37.984;2022-10-16T06:51:04;13.60;;;5.68;;
55931;SDS011;41837;55.700;37.984;2022-10-16T06:53:30;12.77;;;5.97;;
55931;SDS011;41837;55.700;37.984;2022-10-16T06:55:57;13.85;;;5.97;;
55931;SDS011;41837;55.700;37.984;2022-10-16T06:58:23;16.23;;;6.22;;
55931;SDS011;41837;55.700;37.984;2022-10-16T07:00:55;12.25;;;5.95;;
55931;SDS011;41837;55.700;37.984;2022-10-16T07:03:21;15.50;;;6.43;;
55931;SDS011;41837;55.700;37.984;2022-10-16T07:05:47;14.85;;;6.20;;
55931;SDS011;41837;55.700;37.984;2022-10-16T07:08:13;17.77;;;6.25;;
55931;SDS011;41837;55.700;37.984;2022-10-16T07:10:39;15.80;;;6.63;;
55931;SDS011;41837;55.700;37.984;2022-10-16T07:13:06;17.48;;;6.75;;
55931;SDS011;41837;55.700;37.984;2022-10-16T07:15:33;15.93;;;6.60;;
55931;SDS011;41837;55.700;37.984;2022-10-16T07:18:01;10.98;;;5.53;;
55931;SDS011;41837;55.700;37.984;2022-10-16T07:20:27;14.27;;;6.38;;
55931;SDS011;41837;55.700;37.984;2022-10-16T07:22:53;13.38;;;6.38;;
55931;SDS011;41837;55.700;37.984;2022-10-16T07:25:19;12.77;;;7.10;;
55931;SDS011;41837;55.700;37.984;2022-10-16T07:27:45;14.75;;;6.78;;
55931;SDS011;41837;55.700;37.984;2022-10-16T07:30:10;20.75;;;9.55;;
55931;SDS011;41837;55.700;37.984;2022-10-16T07:32:37;24.67;;;12.00;;
55931;SDS011;41837;55.700;37.984;2022-10-16T07:35:03;19.90;;;7.53;;
55931;SDS011;41837;55.700;37.984;2022-10-16T07:37:29;21.73;;;6.40;;
55931;SDS011;41837;55.700;37.984;2022-10-16T07:39:55;17.17;;;7.82;;
55931;SDS011;41837;55.700;37.984;2022-10-16T07:42:22;14.82;;;6.30;;
55931;SDS011;41837;55.700;37.984;2022-10-16T07:44:48;17.45;;;6.40;;
55931;SDS011;41837;55.700;37.984;2022-10-16T07:47:14;15.25;;;6.40;;
55931;SDS011;41837;55.700;37.984;2022-10-16T07:49:41;14.02;;;5.85;;
55931;SDS011;41837;55.700;37.984;2022-10-16T07:52:07;15.10;;;6.40;;
55931;SDS011;41837;55.700;37.984;2022-10-16T07:54:33;14.20;;;7.65;;
55931;SDS011;41837;55.700;37.984;2022-10-16T07:56:59;16.75;;;7.70;;
55931;SDS011;41837;55.700;37.984;2022-10-16T07:59:25;16.73;;;8.10;;
55931;SDS011;41837;55.700;37.984;2022-10-16T08:01:52;18.23;;;8.35;;
55931;SDS011;41837;55.700;37.984;2022-10-16T08:04:17;17.42;;;8.45;;
55931;SDS011;41837;55.700;37.984;2022-10-16T08:06:43;23.98;;;6.70;;
55931;SDS011;41837;55.700;37.984;2022-10-16T08:09:09;14.48;;;6.47;;
55931;SDS011;41837;55.700;37.984;2022-10-16T08:11:36;18.38;;;8.15;;
55931;SDS011;41837;55.700;37.984;2022-10-16T08:14:02;14.23;;;6.32;;
55931;SDS011;41837;55.700;37.984;2022-10-16T08:16:28;14.13;;;6.07;;
55931;SDS011;41837;55.700;37.984;2022-10-16T08:18:54;28.60;;;10.57;;
55931;SDS011;41837;55.700;37.984;2022-10-16T08:21:20;12.07;;;5.97;;
55931;SDS011;41837;55.700;37.984;2022-10-16T08:23:46;13.45;;;5.72;;
55931;SDS011;41837;55.700;37.984;2022-10-16T08:26:13;14.90;;;6.20;;
55931;SDS011;41837;55.700;37.984;2022-10-16T08:28:38;14.90;;;6.78;;
55931;SDS011;41837;55.700;37.984;2022-10-16T08:31:06;16.33;;;6.82;;
55931;SDS011;41837;55.700;37.984;2022-10-16T08:33:32;17.20;;;6.90;;
55931;SDS011;41837;55.700;37.984;2022-10-16T08:36:01;15.52;;;7.78;;
55931;SDS011;41837;55.700;37.984;2022-10-16T08:38:27;16.73;;;6.40;;
55931;SDS011;41837;55.700;37.984;2022-10-16T08:40:54;16.92;;;5.80;;
55931;SDS011;41837;55.700;37.984;2022-10-16T08:51:06;15.98;;;6.80;;
55931;SDS011;41837;55.700;37.984;2022-10-16T08:53:44;14.38;;;6.05;;
55931;SDS011;41837;55.700;37.984;2022-10-16T08:56:12;13.18;;;5.88;;
55931;SDS011;41837;55.700;37.984;2022-10-16T08:58:38;18.67;;;5.72;;
55931;SDS011;41837;55.700;37.984;2022-10-16T09:01:05;26.85;;;6.15;;
55931;SDS011;41837;55.700;37.984;2022-10-16T09:06:17;14.02;;;5.78;;
55931;SDS011;41837;55.700;37.984;2022-10-16T09:16:30;14.52;;;6.20;;
55931;SDS011;41837;55.700;37.984;2022-10-16T09:21:28;27.17;;;8.40;;
55931;SDS011;41837;55.700;37.984;2022-10-16T09:23:59;17.38;;;7.78;;
55931;SDS011;41837;55.700;37.984;2022-10-16T09:26:26;15.57;;;5.70;;
55931;SDS011;41837;55.700;37.984;2022-10-16T09:28:52;14.57;;;6.07;;
55931;SDS011;41837;55.700;37.984;2022-10-16T09:31:20;17.92;;;8.38;;
55931;SDS011;41837;55.700;37.984;2022-10-16T09:33:48;13.88;;;5.53;;
55931;SDS011;41837;55.700;37.984;2022-10-16T09:36:14;18.90;;;7.20;;
55931;SDS011;41837;55.700;37.984;2022-10-16T09:38:40;19.38;;;7.30;;
55931;SDS011;41837;55.700;37.984;2022-10-16T09:43:52;24.15;;;6.93;;
55931;SDS011;41837;55.700;37.984;2022-10-16T09:48:59;17.67;;;5.60;;
55931;SDS011;41837;55.700;37.984;2022-10-16T09:51:26;14.25;;;5.60;;
55931;SDS011;41837;55.700;37.984;2022-10-16T09:53:57;18.88;;;6.13;;
55931;SDS011;41837;55.700;37.984;2022-10-16T09:56:33;16.05;;;6.72;;
55931;SDS011;41837;55.700;37.984;2022-10-16T09:59:10;10.70;;;4.63;;
55931;SDS011;41837;55.700;37.984;2022-10-16T10:04:05;10.52;;;4.65;;
55931;SDS011;41837;55.700;37.984;2022-10-16T10:06:45;10.07;;;4.53;;
55931;SDS011;41837;55.700;37.984;2022-10-16T10:09:22;18.95;;;8.20;;
55931;SDS011;41837;55.700;37.984;2022-10-16T10:11:50;15.18;;;5.82;;
55931;SDS011;41837;55.700;37.984;2022-10-16T10:17:01;42.38;;;6.57;;
55931;SDS011;41837;55.700;37.984;2022-10-16T10:21:52;14.15;;;4.57;;
55931;SDS011;41837;55.700;37.984;2022-10-16T10:24:19;10.10;;;4.60;;
55931;SDS011;41837;55.700;37.984;2022-10-16T10:26:49;13.90;;;4.70;;
55931;SDS011;41837;55.700;37.984;2022-10-16T10:29:20;12.23;;;4.63;;
55931;SDS011;41837;55.700;37.984;2022-10-16T10:32:00;13.15;;;5.43;;
55931;SDS011;41837;55.700;37.984;2022-10-16T10:37:24;10.73;;;4.60;;
55931;SDS011;41837;55.700;37.984;2022-10-16T10:42:36;15.18;;;4.95;;
55931;SDS011;41837;55.700;37.984;2022-10-16T10:45:25;12.98;;;3.35;;
55931;SDS011;41837;55.700;37.984;2022-10-16T10:53:06;6.82;;;3.28;;
55931;SDS011;41837;55.700;37.984;2022-10-16T10:55:40;10.32;;;3.42;;
55931;SDS011;41837;55.700;37.984;2022-10-16T11:05:44;10.15;;;4.53;;
55931;SDS011;41837;55.700;37.984;2022-10-16T11:11:02;13.90;;;3.80;;
55931;SDS011;41837;55.700;37.984;2022-10-16T11:16:17;9.25;;;3.35;;
55931;SDS011;41837;55.700;37.984;2022-10-16T11:21:44;12.00;;;3.28;;
55931;SDS011;41837;55.700;37.984;2022-10-16T11:24:20;30.00;;;5.90;;
55931;SDS011;41837;55.700;37.984;2022-10-16T11:26:48;384.35;;;35.42;;
55931;SDS011;41837;55.700;37.984;2022-10-16T11:29:19;255.48;;;19.42;;
55931;SDS011;41837;55.700;37.984;2022-10-16T11:31:49;20.38;;;5.75;;
55931;SDS011;41837;55.700;37.984;2022-10-16T11:34:28;384.38;;;29.75;;
55931;SDS011;41837;55.700;37.984;2022-10-16T11:37:06;10.07;;;3.20;;
55931;SDS011;41837;55.700;37.984;2022-10-16T11:39:35;12.25;;;3.10;;
55931;SDS011;41837;55.700;37.984;2022-10-16T11:47:24;15.90;;;4.63;;
55931;SDS011;41837;55.700;37.984;2022-10-16T11:50:02;32.70;;;5.35;;
55931;SDS011;41837;55.700;37.984;2022-10-16T11:55:34;13.95;;;4.50;;
55931;SDS011;41837;55.700;37.984;2022-10-16T11:58:03;9.20;;;3.25;;
55931;SDS011;41837;55.700;37.984;2022-10-16T12:03:31;11.68;;;4.38;;
55931;SDS011;41837;55.700;37.984;2022-10-16T12:06:22;10.98;;;3.97;;
55931;SDS011;41837;55.700;37.984;2022-10-16T12:08:51;9.27;;;3.53;;
55931;SDS011;41837;55.700;37.984;2022-10-16T12:11:30;8.70;;;3.22;;
55931;SDS011;41837;55.700;37.984;2022-10-16T12:14:17;12.75;;;4.40;;
55931;SDS011;41837;55.700;37.984;2022-10-16T12:19:17;12.32;;;3.10;;
55931;SDS011;41837;55.700;37.984;2022-10-16T12:21:44;15.60;;;4.60;;
55931;SDS011;41837;55.700;37.984;2022-10-16T12:31:54;11.95;;;3.88;;
55931;SDS011;41837;55.700;37.984;2022-10-16T12:34:21;9.80;;;4.45;;
55931;SDS011;41837;55.700;37.984;2022-10-16T12:36:48;12.65;;;4.10;;
55931;SDS011;41837;55.700;37.984;2022-10-16T12:39:24;16.33;;;5.82;;
55931;SDS011;41837;55.700;37.984;2022-10-16T12:42:04;12.02;;;5.78;;
55931;SDS011;41837;55.700;37.984;2022-10-16T12:44:34;8.82;;;3.20;;
55931;SDS011;41837;55.700;37.984;2022-10-16T12:47:01;12.25;;;7.43;;
55931;SDS011;41837;55.700;37.984;2022-10-16T12:51:54;12.57;;;5.90;;
55931;SDS011;41837;55.700;37.984;2022-10-16T12:54:22;11.15;;;5.15;;
55931;SDS011;41837;55.700;37.984;2022-10-16T12:59:22;10.00;;;3.70;;
55931;SDS011;41837;55.700;37.984;2022-10-16T13:04:39;13.57;;;4.13;;
55931;SDS011;41837;55.700;37.984;2022-10-16T13:07:19;9.18;;;4.97;;
55931;SDS011;41837;55.700;37.984;2022-10-16T13:15:05;6.47;;;3.53;;
55931;SDS011;41837;55.700;37.984;2022-10-16T13:22:56;12.15;;;5.00;;
55931;SDS011;41837;55.700;37.984;2022-10-16T13:27:56;11.05;;;5.63;;
55931;SDS011;41837;55.700;37.984;2022-10-16T13:30:26;16.88;;;5.00;;
55931;SDS011;41837;55.700;37.984;2022-10-16T13:33:04;11.07;;;4.05;;
55931;SDS011;41837;55.700;37.984;2022-10-16T13:35:33;14.75;;;4.47;;
55931;SDS011;41837;55.700;37.984;2022-10-16T13:38:11;17.70;;;6.63;;
55931;SDS011;41837;55.700;37.984;2022-10-16T13:40:48;14.02;;;6.07;;
55931;SDS011;41837;55.700;37.984;2022-10-16T13:43:16;12.85;;;4.88;;
55931;SDS011;41837;55.700;37.984;2022-10-16T13:45:51;11.35;;;4.80;;
55931;SDS011;41837;55.700;37.984;2022-10-16T13:48:18;14.93;;;4.75;;
55931;SDS011;41837;55.700;37.984;2022-10-16T13:50:44;14.07;;;4.72;;
55931;SDS011;41837;55.700;37.984;2022-10-16T13:53:14;16.35;;;5.43;;
55931;SDS011;41837;55.700;37.984;2022-10-16T13:55:40;10.95;;;5.05;;
55931;SDS011;41837;55.700;37.984;2022-10-16T13:58:07;14.23;;;4.90;;
55931;SDS011;41837;55.700;37.984;2022-10-16T14:00:36;15.20;;;6.18;;
55931;SDS011;41837;55.700;37.984;2022-10-16T14:03:04;20.45;;;6.22;;
55931;SDS011;41837;55.700;37.984;2022-10-16T14:05:30;16.75;;;5.57;;
55931;SDS011;41837;55.700;37.984;2022-10-16T14:07:56;23.88;;;5.97;;
55931;SDS011;41837;55.700;37.984;2022-10-16T14:10:26;22.80;;;7.22;;
55931;SDS011;41837;55.700;37.984;2022-10-16T14:13:00;14.40;;;6.72;;
55931;SDS011;41837;55.700;37.984;2022-10-16T14:15:27;20.23;;;12.18;;
55931;SDS011;41837;55.700;37.984;2022-10-16T14:17:54;16.15;;;10.25;;
55931;SDS011;41837;55.700;37.984;2022-10-16T14:20:22;35.33;;;9.95;;
55931;SDS011;41837;55.700;37.984;2022-10-16T14:22:58;14.60;;;7.28;;
55931;SDS011;41837;55.700;37.984;2022-10-16T14:25:25;22.83;;;9.00;;
55931;SDS011;41837;55.700;37.984;2022-10-16T14:27:59;20.25;;;9.07;;
55931;SDS011;41837;55.700;37.984;2022-10-16T14:30:27;20.88;;;8.60;;
55931;SDS011;41837;55.700;37.984;2022-10-16T14:35:33;22.15;;;10.85;;
55931;SDS011;41837;55.700;37.984;2022-10-16T14:38:01;24.13;;;10.23;;
55931;SDS011;41837;55.700;37.984;2022-10-16T14:40:29;25.60;;;8.98;;
55931;SDS011;41837;55.700;37.984;2022-10-16T14:42:56;22.67;;;7.75;;
55931;SDS011;41837;55.700;37.984;2022-10-16T14:45:27;17.52;;;7.68;;
55931;SDS011;41837;55.700;37.984;2022-10-16T14:47:55;18.08;;;7.13;;
55931;SDS011;41837;55.700;37.984;2022-10-16T14:50:22;22.20;;;7.60;;
55931;SDS011;41837;55.700;37.984;2022-10-16T14:52:48;21.05;;;7.70;;
55931;SDS011;41837;55.700;37.984;2022-10-16T14:55:14;23.08;;;8.70;;
55931;SDS011;41837;55.700;37.984;2022-10-16T14:57:40;24.98;;;8.38;;
55931;SDS011;41837;55.700;37.984;2022-10-16T15:00:10;26.50;;;9.63;;
55931;SDS011;41837;55.700;37.984;2022-10-16T15:02:39;26.13;;;10.35;;
55931;SDS011;41837;55.700;37.984;2022-10-16T15:05:21;27.92;;;10.38;;
55931;SDS011;41837;55.700;37.984;2022-10-16T15:07:48;26.83;;;14.00;;
55931;SDS011;41837;55.700;37.984;2022-10-16T15:10:15;34.75;;;16.33;;
55931;SDS011;41837;55.700;37.984;2022-10-16T15:12:41;40.28;;;18.05;;
55931;SDS011;41837;55.700;37.984;2022-10-16T15:17:49;38.63;;;18.52;;
55931;SDS011;41837;55.700;37.984;2022-10-16T15:20:18;38.63;;;18.20;;
55931;SDS011;41837;55.700;37.984;2022-10-16T15:22:44;36.53;;;18.15;;
55931;SDS011;41837;55.700;37.984;2022-10-16T15:25:30;38.83;;;17.45;;
55931;SDS011;41837;55.700;37.984;2022-10-16T15:28:01;35.90;;;16.70;;
55931;SDS011;41837;55.700;37.984;2022-10-16T15:30:27;45.58;;;17.63;;
55931;SDS011;41837;55.700;37.984;2022-10-16T15:32:54;46.80;;;18.65;;
55931;SDS011;41837;55.700;37.984;2022-10-16T15:35:21;51.00;;;21.35;;
55931;SDS011;41837;55.700;37.984;2022-10-16T15:37:47;55.03;;;21.98;;
55931;SDS011;41837;55.700;37.984;2022-10-16T15:40:14;67.25;;;26.85;;
55931;SDS011;41837;55.700;37.984;2022-10-16T15:42:40;67.22;;;27.98;;
55931;SDS011;41837;55.700;37.984;2022-10-16T15:45:06;56.35;;;27.55;;
55931;SDS011;41837;55.700;37.984;2022-10-16T15:47:32;59.17;;;24.10;;
55931;SDS011;41837;55.700;37.984;2022-10-16T15:49:58;60.95;;;24.58;;
55931;SDS011;41837;55.700;37.984;2022-10-16T15:52:24;63.13;;;22.33;;
55931;SDS011;41837;55.700;37.984;2022-10-16T15:54:50;54.55;;;22.30;;
55931;SDS011;41837;55.700;37.984;2022-10-16T15:57:16;54.03;;;22.15;;
55931;SDS011;41837;55.700;37.984;2022-10-16T15:59:42;57.92;;;21.55;;
55931;SDS011;41837;55.700;37.984;2022-10-16T16:02:09;50.25;;;20.08;;
55931;SDS011;41837;55.700;37.984;2022-10-16T16:04:35;44.78;;;18.52;;
55931;SDS011;41837;55.700;37.984;2022-10-16T16:07:01;40.75;;;19.58;;
55931;SDS011;41837;55.700;37.984;2022-10-16T16:09:29;41.92;;;20.40;;
55931;SDS011;41837;55.700;37.984;2022-10-16T16:11:55;40.65;;;20.25;;
55931;SDS011;41837;55.700;37.984;2022-10-16T16:14:21;42.92;;;21.23;;
55931;SDS011;41837;55.700;37.984;2022-10-16T16:16:47;43.10;;;20.85;;
55931;SDS011;41837;55.700;37.984;2022-10-16T16:19:13;39.95;;;19.85;;
55931;SDS011;41837;55.700;37.984;2022-10-16T16:21:39;31.95;;;15.77;;
55931;SDS011;41837;55.700;37.984;2022-10-16T16:24:05;35.92;;;15.70;;
55931;SDS011;41837;55.700;37.984;2022-10-16T16:26:34;31.13;;;14.52;;
55931;SDS011;41837;55.700;37.984;2022-10-16T16:29:03;32.95;;;14.38;;
55931;SDS011;41837;55.700;37.984;2022-10-16T16:31:30;41.28;;;16.85;;
55931;SDS011;41837;55.700;37.984;2022-10-16T16:33:56;37.55;;;15.30;;